createdAt,value
2022-11-20T00:09:13.974Z,44.02
2022-11-20T00:19:15.510Z,44.48
2022-11-20T00:29:17.078Z,44.39
2022-11-20T00:39:18.822Z,44.11
2022-11-20T00:49:20.751Z,43.60
2022-11-20T00:59:22.731Z,43.45
2022-11-20T01:09:24.428Z,42.73
2022-11-20T01:19:26.239Z,42.77
2022-11-20T01:29:27.656Z,42.61
2022-11-20T01:39:29.488Z,42.35
2022-11-20T01:49:56.713Z,42.52
2022-11-20T02:00:03.830Z,42.80
2022-11-20T02:10:05.449Z,42.83
2022-11-20T02:20:07.774Z,42.92
2022-11-20T02:30:11.865Z,43.19
2022-11-20T02:40:13.462Z,43.57
2022-11-20T02:50:15.001Z,43.27
2022-11-20T03:00:16.718Z,43.54
2022-11-20T03:10:18.179Z,43.43
2022-11-20T03:20:19.568Z,43.57
2022-11-20T03:30:21.038Z,43.42
2022-11-20T03:40:22.659Z,43.62
2022-11-20T03:50:24.092Z,44.31
2022-11-20T04:00:25.455Z,44.65
2022-11-20T04:10:26.855Z,44.21
2022-11-20T04:20:28.320Z,43.97
2022-11-20T04:30:29.813Z,44.13
2022-11-20T04:40:31.746Z,44.20
2022-11-20T04:50:34.403Z,44.54
2022-11-20T05:00:35.792Z,44.77
2022-11-20T05:10:37.361Z,44.85
2022-11-20T05:20:38.866Z,45.09
2022-11-20T05:30:40.371Z,44.25
2022-11-20T05:40:41.753Z,44.61
2022-11-20T05:50:43.125Z,44.87
2022-11-20T06:00:44.707Z,44.15
2022-11-20T06:10:46.188Z,44.43
2022-11-20T06:20:47.764Z,44.54
2022-11-20T06:30:49.127Z,44.67
2022-11-20T06:40:50.535Z,44.24
2022-11-20T06:50:51.905Z,44.19
2022-11-20T07:00:53.456Z,44.32
2022-11-20T07:10:58.356Z,44.53
2022-11-20T07:21:08.012Z,44.70
2022-11-20T07:31:11.533Z,45.09
2022-11-20T07:41:16.149Z,44.85
2022-11-20T07:51:17.548Z,44.76
2022-11-20T08:01:19.018Z,44.89
2022-11-20T08:11:38.799Z,44.89
2022-11-20T08:21:40.444Z,44.39
2022-11-20T08:31:41.932Z,44.36
2022-11-20T08:41:43.419Z,44.54
2022-11-20T08:51:45.019Z,44.33
2022-11-20T09:01:46.400Z,44.06
2022-11-20T09:11:47.996Z,43.55
2022-11-20T09:21:49.362Z,43.68
2022-11-20T09:31:55.949Z,43.27
2022-11-20T09:42:20.064Z,42.93
2022-11-20T09:52:34.577Z,43.05
2022-11-20T10:02:38.686Z,42.36
2022-11-20T10:12:52.279Z,42.17
2022-11-20T10:23:15.408Z,41.11
2022-11-20T10:33:18.579Z,40.92
2022-11-20T10:43:23.769Z,41.54
2022-11-20T10:53:39.105Z,41.35
2022-11-20T11:03:40.501Z,41.31
2022-11-20T11:13:41.888Z,41.66
2022-11-20T11:23:43.636Z,41.93
2022-11-20T11:33:45.202Z,42.26
2022-11-20T11:44:13.590Z,42.04
2022-11-20T11:54:24.084Z,42.09
2022-11-20T12:04:43.515Z,41.98
2022-11-20T12:14:46.161Z,42.62
2022-11-20T12:25:13.627Z,42.06
2022-11-20T12:35:40.171Z,42.24
2022-11-20T12:46:06.016Z,42.18
2022-11-20T12:56:32.207Z,42.15
2022-11-20T13:06:33.659Z,42.36
2022-11-20T13:16:39.368Z,42.52
2022-11-20T13:26:42.290Z,42.82
2022-11-20T13:36:52.262Z,43.30
2022-11-20T13:46:54.528Z,43.19
2022-11-20T13:57:33.513Z,43.73
2022-11-20T14:07:40.153Z,43.38
2022-11-20T14:17:41.641Z,43.82
2022-11-20T14:27:44.584Z,44.21
2022-11-20T14:37:46.061Z,44.34
2022-11-20T14:47:47.522Z,44.54
2022-11-20T14:57:55.586Z,44.59
2022-11-20T15:08:08.209Z,44.93
2022-11-20T15:18:17.881Z,45.61
2022-11-20T15:28:30.506Z,45.99
2022-11-20T15:38:31.965Z,46.54
2022-11-20T15:48:36.828Z,47.61
2022-11-20T15:58:38.249Z,48.38
2022-11-20T16:08:39.712Z,49.01
2022-11-20T16:18:41.098Z,49.40
2022-11-20T16:28:42.679Z,50.00
2022-11-20T16:38:44.063Z,50.54
2022-11-20T16:48:45.867Z,50.63
2022-11-20T16:58:51.154Z,51.22
2022-11-20T17:08:53.812Z,51.22
2022-11-20T17:18:59.704Z,51.40
2022-11-20T17:29:05.894Z,51.49
2022-11-20T17:39:07.327Z,51.79
2022-11-20T17:49:11.528Z,52.27
2022-11-20T17:59:13.289Z,52.32
2022-11-20T18:09:15.303Z,52.51
2022-11-20T18:19:18.744Z,52.63
2022-11-20T18:29:20.180Z,52.99
2022-11-20T18:39:21.779Z,53.53
2022-11-20T18:49:23.310Z,53.96
2022-11-20T18:59:24.683Z,54.02
2022-11-20T19:09:26.493Z,54.10
2022-11-20T19:19:29.119Z,54.30
2022-11-20T19:29:30.575Z,54.48
2022-11-20T19:39:32.544Z,54.48
2022-11-20T19:49:34.053Z,54.65
2022-11-20T19:59:35.435Z,54.26
2022-11-20T20:09:36.863Z,54.58
2022-11-20T20:19:38.252Z,54.30
2022-11-20T20:29:39.725Z,54.08
2022-11-20T20:39:41.180Z,53.49
2022-11-20T20:49:43.169Z,53.83
2022-11-20T20:59:44.537Z,53.72
2022-11-20T21:09:45.966Z,54.03
2022-11-20T21:19:47.471Z,53.57
2022-11-20T21:29:48.997Z,53.26
2022-11-20T21:39:51.901Z,52.82
2022-11-20T21:49:53.979Z,51.41
2022-11-20T21:59:55.416Z,51.56
2022-11-20T22:09:56.841Z,50.99
2022-11-20T22:19:58.407Z,50.91
2022-11-20T22:29:59.778Z,51.06
2022-11-20T22:40:03.922Z,50.67
2022-11-20T22:50:05.682Z,50.42
2022-11-20T23:00:08.222Z,49.97
2022-11-20T23:10:09.945Z,50.21
2022-11-20T23:20:11.545Z,50.29
2022-11-20T23:30:13.157Z,50.39
2022-11-20T23:40:14.651Z,50.81
2022-11-20T23:50:16.229Z,50.48
